sensor_id;sensor_type;location;lat;lon;timestamp;P1;durP1;ratioP1;P2;durP2;ratioP2
23588;SDS011;11972;48.078;11.876;2022-08-02T00:00:01;0.50;;;0.50;;
23588;SDS011;11972;48.078;11.876;2022-08-02T00:04:01;0.93;;;0.47;;
23588;SDS011;11972;48.078;11.876;2022-08-02T00:08:02;0.52;;;0.50;;
23588;SDS011;11972;48.078;11.876;2022-08-02T00:12:03;1.35;;;0.52;;
23588;SDS011;11972;48.078;11.876;2022-08-02T00:16:03;0.80;;;0.70;;
23588;SDS011;11972;48.078;11.876;2022-08-02T00:20:04;1.75;;;0.50;;
23588;SDS011;11972;48.078;11.876;2022-08-02T00:24:05;0.88;;;0.80;;
23588;SDS011;11972;48.078;11.876;2022-08-02T00:28:06;0.57;;;0.50;;
23588;SDS011;11972;48.078;11.876;2022-08-02T00:32:06;0.75;;;0.30;;
23588;SDS011;11972;48.078;11.876;2022-08-02T00:36:06;0.60;;;0.50;;
23588;SDS011;11972;48.078;11.876;2022-08-02T00:40:07;1.02;;;0.52;;
23588;SDS011;11972;48.078;11.876;2022-08-02T00:44:09;1.40;;;0.50;;
23588;SDS011;11972;48.078;11.876;2022-08-02T00:48:12;1.40;;;0.50;;
23588;SDS011;11972;48.078;11.876;2022-08-02T00:52:13;0.85;;;0.60;;
23588;SDS011;11972;48.078;11.876;2022-08-02T00:56:13;0.57;;;0.57;;
23588;SDS011;11972;48.078;11.876;2022-08-02T01:00:14;1.03;;;0.60;;
23588;SDS011;11972;48.078;11.876;2022-08-02T01:04:15;0.50;;;0.50;;
23588;SDS011;11972;48.078;11.876;2022-08-02T01:08:15;1.20;;;0.97;;
23588;SDS011;11972;48.078;11.876;2022-08-02T01:12:16;0.95;;;0.82;;
23588;SDS011;11972;48.078;11.876;2022-08-02T01:16:18;1.55;;;0.70;;
23588;SDS011;11972;48.078;11.876;2022-08-02T01:29:29;1.55;;;0.90;;
23588;SDS011;11972;48.078;11.876;2022-08-02T01:38:04;0.80;;;0.80;;
23588;SDS011;11972;48.078;11.876;2022-08-02T01:42:08;1.02;;;0.80;;
23588;SDS011;11972;48.078;11.876;2022-08-02T01:46:11;0.70;;;0.70;;
23588;SDS011;11972;48.078;11.876;2022-08-02T01:50:15;1.05;;;0.80;;
23588;SDS011;11972;48.078;11.876;2022-08-02T01:54:17;1.00;;;0.90;;
23588;SDS011;11972;48.078;11.876;2022-08-02T01:58:21;1.00;;;1.00;;
23588;SDS011;11972;48.078;11.876;2022-08-02T02:02:25;1.50;;;1.20;;
23588;SDS011;11972;48.078;11.876;2022-08-02T02:06:27;1.52;;;1.00;;
23588;SDS011;11972;48.078;11.876;2022-08-02T02:10:31;0.80;;;0.80;;
23588;SDS011;11972;48.078;11.876;2022-08-02T02:14:33;1.45;;;0.80;;
23588;SDS011;11972;48.078;11.876;2022-08-02T02:18:38;1.25;;;1.08;;
23588;SDS011;11972;48.078;11.876;2022-08-02T02:22:40;1.42;;;0.80;;
23588;SDS011;11972;48.078;11.876;2022-08-02T02:26:42;1.00;;;0.90;;
23588;SDS011;11972;48.078;11.876;2022-08-02T02:30:46;3.50;;;1.15;;
23588;SDS011;11972;48.078;11.876;2022-08-02T02:34:49;1.88;;;0.90;;
23588;SDS011;11972;48.078;11.876;2022-08-02T02:38:50;1.88;;;1.15;;
23588;SDS011;11972;48.078;11.876;2022-08-02T02:42:53;1.20;;;1.10;;
23588;SDS011;11972;48.078;11.876;2022-08-02T02:46:55;2.58;;;0.82;;
23588;SDS011;11972;48.078;11.876;2022-08-02T02:50:56;1.13;;;1.00;;
23588;SDS011;11972;48.078;11.876;2022-08-02T02:54:58;1.10;;;1.00;;
23588;SDS011;11972;48.078;11.876;2022-08-02T02:58:59;1.65;;;1.05;;
23588;SDS011;11972;48.078;11.876;2022-08-02T03:03:00;1.38;;;1.10;;
23588;SDS011;11972;48.078;11.876;2022-08-02T03:07:00;1.13;;;1.02;;
23588;SDS011;11972;48.078;11.876;2022-08-02T03:11:01;1.08;;;1.00;;
23588;SDS011;11972;48.078;11.876;2022-08-02T03:15:05;1.52;;;1.20;;
23588;SDS011;11972;48.078;11.876;2022-08-02T03:19:07;1.02;;;0.93;;
23588;SDS011;11972;48.078;11.876;2022-08-02T03:23:07;1.00;;;0.90;;
23588;SDS011;11972;48.078;11.876;2022-08-02T03:27:07;2.70;;;1.00;;
23588;SDS011;11972;48.078;11.876;2022-08-02T03:31:08;1.13;;;1.10;;
23588;SDS011;11972;48.078;11.876;2022-08-02T03:35:09;1.27;;;1.10;;
23588;SDS011;11972;48.078;11.876;2022-08-02T03:39:12;1.30;;;1.20;;
23588;SDS011;11972;48.078;11.876;2022-08-02T03:43:13;1.30;;;1.20;;
23588;SDS011;11972;48.078;11.876;2022-08-02T03:47:14;1.02;;;0.93;;
23588;SDS011;11972;48.078;11.876;2022-08-02T03:51:16;1.30;;;1.20;;
23588;SDS011;11972;48.078;11.876;2022-08-02T03:55:18;1.58;;;1.13;;
23588;SDS011;11972;48.078;11.876;2022-08-02T03:59:18;1.10;;;1.00;;
23588;SDS011;11972;48.078;11.876;2022-08-02T04:03:19;1.02;;;0.90;;
23588;SDS011;11972;48.078;11.876;2022-08-02T04:07:19;1.10;;;1.00;;
23588;SDS011;11972;48.078;11.876;2022-08-02T04:11:20;1.50;;;1.07;;
23588;SDS011;11972;48.078;11.876;2022-08-02T04:15:32;1.10;;;1.00;;
23588;SDS011;11972;48.078;11.876;2022-08-02T04:19:38;1.38;;;1.05;;
23588;SDS011;11972;48.078;11.876;2022-08-02T04:23:42;1.52;;;1.10;;
23588;SDS011;11972;48.078;11.876;2022-08-02T04:27:46;1.33;;;1.23;;
23588;SDS011;11972;48.078;11.876;2022-08-02T04:31:47;1.30;;;1.20;;
23588;SDS011;11972;48.078;11.876;2022-08-02T04:35:48;1.25;;;1.15;;
23588;SDS011;11972;48.078;11.876;2022-08-02T04:39:48;1.73;;;1.63;;
23588;SDS011;11972;48.078;11.876;2022-08-02T04:43:49;2.40;;;2.20;;
23588;SDS011;11972;48.078;11.876;2022-08-02T04:47:49;1.75;;;1.00;;
23588;SDS011;11972;48.078;11.876;2022-08-02T04:51:49;2.17;;;1.03;;
23588;SDS011;11972;48.078;11.876;2022-08-02T04:55:50;1.23;;;1.00;;
23588;SDS011;11972;48.078;11.876;2022-08-02T04:59:50;1.33;;;0.82;;
23588;SDS011;11972;48.078;11.876;2022-08-02T05:03:51;1.48;;;1.20;;
23588;SDS011;11972;48.078;11.876;2022-08-02T05:07:51;4.20;;;1.45;;
23588;SDS011;11972;48.078;11.876;2022-08-02T05:11:52;2.50;;;1.10;;
23588;SDS011;11972;48.078;11.876;2022-08-02T05:15:52;3.77;;;1.17;;
23588;SDS011;11972;48.078;11.876;2022-08-02T05:19:53;1.67;;;1.00;;
23588;SDS011;11972;48.078;11.876;2022-08-02T05:23:53;1.70;;;1.03;;
23588;SDS011;11972;48.078;11.876;2022-08-02T05:27:53;1.83;;;1.08;;
23588;SDS011;11972;48.078;11.876;2022-08-02T05:31:54;2.30;;;1.00;;
23588;SDS011;11972;48.078;11.876;2022-08-02T05:35:54;0.88;;;0.70;;
23588;SDS011;11972;48.078;11.876;2022-08-02T05:39:54;1.27;;;0.98;;
23588;SDS011;11972;48.078;11.876;2022-08-02T05:43:55;1.93;;;1.00;;
23588;SDS011;11972;48.078;11.876;2022-08-02T05:47:55;1.60;;;0.75;;
23588;SDS011;11972;48.078;11.876;2022-08-02T05:52:03;1.57;;;1.03;;
23588;SDS011;11972;48.078;11.876;2022-08-02T06:00:22;1.13;;;0.93;;
23588;SDS011;11972;48.078;11.876;2022-08-02T06:04:30;1.55;;;1.40;;
23588;SDS011;11972;48.078;11.876;2022-08-02T06:08:43;1.95;;;1.23;;
23588;SDS011;11972;48.078;11.876;2022-08-02T06:12:49;1.58;;;0.75;;
23588;SDS011;11972;48.078;11.876;2022-08-02T06:16:50;0.60;;;0.60;;
23588;SDS011;11972;48.078;11.876;2022-08-02T06:20:50;1.30;;;0.60;;
23588;SDS011;11972;48.078;11.876;2022-08-02T06:24:51;0.50;;;0.50;;
23588;SDS011;11972;48.078;11.876;2022-08-02T06:28:53;0.82;;;0.60;;
23588;SDS011;11972;48.078;11.876;2022-08-02T06:32:55;0.63;;;0.63;;
23588;SDS011;11972;48.078;11.876;2022-08-02T06:36:59;1.13;;;0.60;;
23588;SDS011;11972;48.078;11.876;2022-08-02T06:41:09;0.65;;;0.60;;
23588;SDS011;11972;48.078;11.876;2022-08-02T06:45:12;0.80;;;0.55;;
23588;SDS011;11972;48.078;11.876;2022-08-02T06:49:12;0.80;;;0.60;;
23588;SDS011;11972;48.078;11.876;2022-08-02T06:53:13;0.90;;;0.70;;
23588;SDS011;11972;48.078;11.876;2022-08-02T06:57:13;0.70;;;0.70;;
23588;SDS011;11972;48.078;11.876;2022-08-02T07:01:13;1.50;;;0.50;;
23588;SDS011;11972;48.078;11.876;2022-08-02T07:05:14;0.40;;;0.40;;
23588;SDS011;11972;48.078;11.876;2022-08-02T07:09:14;0.60;;;0.60;;
23588;SDS011;11972;48.078;11.876;2022-08-02T07:13:14;0.70;;;0.60;;
23588;SDS011;11972;48.078;11.876;2022-08-02T07:17:15;0.40;;;0.40;;
23588;SDS011;11972;48.078;11.876;2022-08-02T07:21:15;0.65;;;0.60;;
23588;SDS011;11972;48.078;11.876;2022-08-02T07:25:16;0.67;;;0.57;;
23588;SDS011;11972;48.078;11.876;2022-08-02T07:29:16;0.85;;;0.80;;
23588;SDS011;11972;48.078;11.876;2022-08-02T07:33:16;1.50;;;0.70;;
23588;SDS011;11972;48.078;11.876;2022-08-02T07:37:17;0.90;;;0.47;;
23588;SDS011;11972;48.078;11.876;2022-08-02T07:41:17;0.70;;;0.60;;
23588;SDS011;11972;48.078;11.876;2022-08-02T07:45:18;0.90;;;0.80;;
23588;SDS011;11972;48.078;11.876;2022-08-02T07:49:19;0.98;;;0.70;;
23588;SDS011;11972;48.078;11.876;2022-08-02T07:53:20;1.87;;;0.70;;
23588;SDS011;11972;48.078;11.876;2022-08-02T07:57:20;0.83;;;0.63;;
23588;SDS011;11972;48.078;11.876;2022-08-02T08:01:20;2.27;;;0.80;;
23588;SDS011;11972;48.078;11.876;2022-08-02T08:05:21;2.13;;;0.60;;
23588;SDS011;11972;48.078;11.876;2022-08-02T08:09:22;1.60;;;0.90;;
23588;SDS011;11972;48.078;11.876;2022-08-02T08:13:23;1.23;;;0.70;;
23588;SDS011;11972;48.078;11.876;2022-08-02T08:17:23;1.13;;;0.80;;
23588;SDS011;11972;48.078;11.876;2022-08-02T08:21:23;1.20;;;0.50;;
23588;SDS011;11972;48.078;11.876;2022-08-02T08:25:24;0.47;;;0.47;;
23588;SDS011;11972;48.078;11.876;2022-08-02T08:29:24;0.93;;;0.50;;
23588;SDS011;11972;48.078;11.876;2022-08-02T08:33:25;1.00;;;0.68;;
23588;SDS011;11972;48.078;11.876;2022-08-02T08:37:25;2.83;;;0.73;;
23588;SDS011;11972;48.078;11.876;2022-08-02T08:41:26;0.50;;;0.50;;
23588;SDS011;11972;48.078;11.876;2022-08-02T08:45:26;0.52;;;0.52;;
23588;SDS011;11972;48.078;11.876;2022-08-02T08:49:31;1.58;;;0.70;;
23588;SDS011;11972;48.078;11.876;2022-08-02T08:53:38;2.08;;;0.60;;
23588;SDS011;11972;48.078;11.876;2022-08-02T08:57:41;1.60;;;0.50;;
23588;SDS011;11972;48.078;11.876;2022-08-02T09:01:43;0.50;;;0.50;;
23588;SDS011;11972;48.078;11.876;2022-08-02T09:05:45;2.03;;;0.68;;
23588;SDS011;11972;48.078;11.876;2022-08-02T09:09:48;0.73;;;0.50;;
23588;SDS011;11972;48.078;11.876;2022-08-02T09:13:50;0.68;;;0.50;;
23588;SDS011;11972;48.078;11.876;2022-08-02T09:17:55;1.52;;;0.60;;
23588;SDS011;11972;48.078;11.876;2022-08-02T09:22:05;2.07;;;0.60;;
23588;SDS011;11972;48.078;11.876;2022-08-02T09:26:08;1.83;;;0.60;;
23588;SDS011;11972;48.078;11.876;2022-08-02T09:30:12;0.80;;;0.52;;
23588;SDS011;11972;48.078;11.876;2022-08-02T09:34:13;1.33;;;0.60;;
23588;SDS011;11972;48.078;11.876;2022-08-02T09:38:13;0.60;;;0.60;;
23588;SDS011;11972;48.078;11.876;2022-08-02T09:42:14;1.30;;;0.70;;
23588;SDS011;11972;48.078;11.876;2022-08-02T09:46:24;1.60;;;0.80;;
23588;SDS011;11972;48.078;11.876;2022-08-02T09:50:27;0.80;;;0.65;;
23588;SDS011;11972;48.078;11.876;2022-08-02T09:54:27;1.05;;;0.60;;
23588;SDS011;11972;48.078;11.876;2022-08-02T09:58:28;6.72;;;1.13;;
23588;SDS011;11972;48.078;11.876;2022-08-02T10:02:28;2.50;;;0.95;;
23588;SDS011;11972;48.078;11.876;2022-08-02T10:06:29;1.00;;;0.60;;
23588;SDS011;11972;48.078;11.876;2022-08-02T10:10:31;1.98;;;0.60;;
23588;SDS011;11972;48.078;11.876;2022-08-02T10:14:34;0.87;;;0.57;;
23588;SDS011;11972;48.078;11.876;2022-08-02T10:18:34;1.65;;;0.60;;
23588;SDS011;11972;48.078;11.876;2022-08-02T10:22:35;0.88;;;0.50;;
23588;SDS011;11972;48.078;11.876;2022-08-02T10:26:38;1.10;;;0.50;;
23588;SDS011;11972;48.078;11.876;2022-08-02T10:30:42;0.52;;;0.47;;
23588;SDS011;11972;48.078;11.876;2022-08-02T10:34:48;2.60;;;0.63;;
23588;SDS011;11972;48.078;11.876;2022-08-02T10:38:53;1.42;;;0.50;;
23588;SDS011;11972;48.078;11.876;2022-08-02T10:42:55;0.60;;;0.40;;
23588;SDS011;11972;48.078;11.876;2022-08-02T10:51:16;0.98;;;0.88;;
23588;SDS011;11972;48.078;11.876;2022-08-02T10:55:16;1.50;;;0.60;;
23588;SDS011;11972;48.078;11.876;2022-08-02T10:59:33;0.68;;;0.60;;
23588;SDS011;11972;48.078;11.876;2022-08-02T11:03:38;1.98;;;1.08;;
23588;SDS011;11972;48.078;11.876;2022-08-02T11:07:41;1.50;;;0.70;;
23588;SDS011;11972;48.078;11.876;2022-08-02T11:16:04;0.70;;;0.70;;
23588;SDS011;11972;48.078;11.876;2022-08-02T11:28:32;0.60;;;0.60;;
23588;SDS011;11972;48.078;11.876;2022-08-02T11:32:32;1.73;;;0.50;;
23588;SDS011;11972;48.078;11.876;2022-08-02T11:36:47;0.90;;;0.50;;
23588;SDS011;11972;48.078;11.876;2022-08-02T11:40:50;2.15;;;0.52;;
23588;SDS011;11972;48.078;11.876;2022-08-02T11:44:50;0.60;;;0.60;;
23588;SDS011;11972;48.078;11.876;2022-08-02T11:48:50;2.00;;;0.60;;
23588;SDS011;11972;48.078;11.876;2022-08-02T11:52:51;2.50;;;0.57;;
23588;SDS011;11972;48.078;11.876;2022-08-02T11:57:07;1.15;;;0.50;;
23588;SDS011;11972;48.078;11.876;2022-08-02T12:01:11;0.60;;;0.50;;
23588;SDS011;11972;48.078;11.876;2022-08-02T12:05:14;2.87;;;1.53;;
23588;SDS011;11972;48.078;11.876;2022-08-02T12:09:15;0.55;;;0.50;;
23588;SDS011;11972;48.078;11.876;2022-08-02T12:13:16;1.45;;;0.43;;
23588;SDS011;11972;48.078;11.876;2022-08-02T12:17:23;0.73;;;0.50;;
23588;SDS011;11972;48.078;11.876;2022-08-02T12:21:42;1.00;;;0.50;;
23588;SDS011;11972;48.078;11.876;2022-08-02T12:25:42;0.85;;;0.60;;
23588;SDS011;11972;48.078;11.876;2022-08-02T12:29:43;0.55;;;0.40;;
23588;SDS011;11972;48.078;11.876;2022-08-02T12:33:45;1.10;;;0.60;;
23588;SDS011;11972;48.078;11.876;2022-08-02T12:37:46;0.50;;;0.50;;
23588;SDS011;11972;48.078;11.876;2022-08-02T12:41:55;0.60;;;0.45;;
23588;SDS011;11972;48.078;11.876;2022-08-02T12:45:56;0.68;;;0.50;;
23588;SDS011;11972;48.078;11.876;2022-08-02T12:50:14;2.90;;;0.50;;
23588;SDS011;11972;48.078;11.876;2022-08-02T12:54:16;1.17;;;1.07;;
23588;SDS011;11972;48.078;11.876;2022-08-02T12:58:20;1.67;;;0.80;;
23588;SDS011;11972;48.078;11.876;2022-08-02T13:02:20;0.50;;;0.50;;
23588;SDS011;11972;48.078;11.876;2022-08-02T13:06:24;0.60;;;0.50;;
23588;SDS011;11972;48.078;11.876;2022-08-02T13:10:25;1.80;;;0.50;;
23588;SDS011;11972;48.078;11.876;2022-08-02T13:14:25;0.57;;;0.40;;
23588;SDS011;11972;48.078;11.876;2022-08-02T13:18:25;0.50;;;0.40;;
23588;SDS011;11972;48.078;11.876;2022-08-02T13:22:26;2.30;;;0.52;;
23588;SDS011;11972;48.078;11.876;2022-08-02T13:26:26;0.68;;;0.50;;
23588;SDS011;11972;48.078;11.876;2022-08-02T13:30:28;0.40;;;0.40;;
23588;SDS011;11972;48.078;11.876;2022-08-02T13:34:29;1.08;;;0.40;;
23588;SDS011;11972;48.078;11.876;2022-08-02T13:38:32;0.50;;;0.47;;
23588;SDS011;11972;48.078;11.876;2022-08-02T13:42:33;1.63;;;0.60;;
23588;SDS011;11972;48.078;11.876;2022-08-02T13:46:34;1.48;;;0.50;;
23588;SDS011;11972;48.078;11.876;2022-08-02T13:50:35;3.65;;;0.60;;
23588;SDS011;11972;48.078;11.876;2022-08-02T13:54:39;0.45;;;0.45;;
23588;SDS011;11972;48.078;11.876;2022-08-02T13:58:40;1.10;;;0.50;;
23588;SDS011;11972;48.078;11.876;2022-08-02T14:02:47;0.55;;;0.50;;
23588;SDS011;11972;48.078;11.876;2022-08-02T14:06:53;0.40;;;0.40;;
23588;SDS011;11972;48.078;11.876;2022-08-02T14:10:54;0.50;;;0.50;;
23588;SDS011;11972;48.078;11.876;2022-08-02T14:14:54;0.47;;;0.47;;
23588;SDS011;11972;48.078;11.876;2022-08-02T14:18:54;0.40;;;0.40;;
23588;SDS011;11972;48.078;11.876;2022-08-02T14:22:56;0.40;;;0.30;;
23588;SDS011;11972;48.078;11.876;2022-08-02T14:26:56;0.40;;;0.40;;
23588;SDS011;11972;48.078;11.876;2022-08-02T14:30:57;0.50;;;0.50;;
23588;SDS011;11972;48.078;11.876;2022-08-02T14:34:58;1.13;;;0.40;;
23588;SDS011;11972;48.078;11.876;2022-08-02T14:38:58;1.35;;;0.60;;
23588;SDS011;11972;48.078;11.876;2022-08-02T14:43:00;1.17;;;0.50;;
23588;SDS011;11972;48.078;11.876;2022-08-02T14:47:01;0.95;;;0.50;;
23588;SDS011;11972;48.078;11.876;2022-08-02T14:51:02;0.55;;;0.40;;
23588;SDS011;11972;48.078;11.876;2022-08-02T14:55:03;0.45;;;0.45;;
23588;SDS011;11972;48.078;11.876;2022-08-02T14:59:04;0.95;;;0.40;;
23588;SDS011;11972;48.078;11.876;2022-08-02T15:03:05;1.77;;;0.50;;
23588;SDS011;11972;48.078;11.876;2022-08-02T15:07:05;0.70;;;0.70;;
23588;SDS011;11972;48.078;11.876;2022-08-02T15:11:05;1.70;;;0.40;;
23588;SDS011;11972;48.078;11.876;2022-08-02T15:15:06;1.80;;;0.97;;
23588;SDS011;11972;48.078;11.876;2022-08-02T15:19:06;0.50;;;0.50;;
23588;SDS011;11972;48.078;11.876;2022-08-02T15:23:07;0.50;;;0.43;;
23588;SDS011;11972;48.078;11.876;2022-08-02T15:27:07;0.80;;;0.50;;
23588;SDS011;11972;48.078;11.876;2022-08-02T15:31:11;0.73;;;0.52;;
23588;SDS011;11972;48.078;11.876;2022-08-02T15:35:13;0.70;;;0.50;;
23588;SDS011;11972;48.078;11.876;2022-08-02T15:39:13;0.40;;;0.40;;
23588;SDS011;11972;48.078;11.876;2022-08-02T15:43:13;0.70;;;0.57;;
23588;SDS011;11972;48.078;11.876;2022-08-02T15:47:14;2.13;;;0.53;;
23588;SDS011;11972;48.078;11.876;2022-08-02T15:51:14;1.63;;;1.50;;
23588;SDS011;11972;48.078;11.876;2022-08-02T15:55:14;0.70;;;0.70;;
23588;SDS011;11972;48.078;11.876;2022-08-02T15:59:15;0.70;;;0.70;;
23588;SDS011;11972;48.078;11.876;2022-08-02T16:03:16;1.63;;;0.70;;
23588;SDS011;11972;48.078;11.876;2022-08-02T16:07:16;0.77;;;0.57;;
23588;SDS011;11972;48.078;11.876;2022-08-02T16:11:16;1.07;;;0.70;;
23588;SDS011;11972;48.078;11.876;2022-08-02T16:15:17;0.60;;;0.43;;
23588;SDS011;11972;48.078;11.876;2022-08-02T16:19:17;1.93;;;1.10;;
23588;SDS011;11972;48.078;11.876;2022-08-02T16:23:17;3.90;;;0.90;;
23588;SDS011;11972;48.078;11.876;2022-08-02T16:27:18;1.23;;;0.70;;
23588;SDS011;11972;48.078;11.876;2022-08-02T16:31:18;2.03;;;0.50;;
23588;SDS011;11972;48.078;11.876;2022-08-02T16:35:18;1.27;;;0.50;;
23588;SDS011;11972;48.078;11.876;2022-08-02T16:39:19;0.73;;;0.60;;
23588;SDS011;11972;48.078;11.876;2022-08-02T16:43:19;0.73;;;0.50;;
23588;SDS011;11972;48.078;11.876;2022-08-02T16:47:20;3.75;;;1.20;;
23588;SDS011;11972;48.078;11.876;2022-08-02T16:51:21;3.53;;;0.70;;
23588;SDS011;11972;48.078;11.876;2022-08-02T16:55:21;2.10;;;0.70;;
23588;SDS011;11972;48.078;11.876;2022-08-02T16:59:21;0.50;;;0.50;;
23588;SDS011;11972;48.078;11.876;2022-08-02T17:03:24;1.13;;;0.70;;
23588;SDS011;11972;48.078;11.876;2022-08-02T17:07:24;1.50;;;0.50;;
23588;SDS011;11972;48.078;11.876;2022-08-02T17:11:25;0.73;;;0.50;;
23588;SDS011;11972;48.078;11.876;2022-08-02T17:15:25;1.83;;;0.53;;
23588;SDS011;11972;48.078;11.876;2022-08-02T17:19:26;1.73;;;0.47;;
23588;SDS011;11972;48.078;11.876;2022-08-02T17:23:26;3.35;;;0.82;;
23588;SDS011;11972;48.078;11.876;2022-08-02T17:27:26;1.60;;;1.00;;
23588;SDS011;11972;48.078;11.876;2022-08-02T17:31:27;0.70;;;0.67;;
23588;SDS011;11972;48.078;11.876;2022-08-02T17:35:27;1.73;;;0.70;;
23588;SDS011;11972;48.078;11.876;2022-08-02T17:39:27;2.05;;;1.85;;
23588;SDS011;11972;48.078;11.876;2022-08-02T17:43:28;3.30;;;1.90;;
23588;SDS011;11972;48.078;11.876;2022-08-02T17:47:28;2.13;;;1.90;;
23588;SDS011;11972;48.078;11.876;2022-08-02T17:51:29;1.33;;;0.95;;
23588;SDS011;11972;48.078;11.876;2022-08-02T17:55:29;2.10;;;1.80;;
23588;SDS011;11972;48.078;11.876;2022-08-02T17:59:29;2.38;;;1.38;;
23588;SDS011;11972;48.078;11.876;2022-08-02T18:03:30;4.47;;;1.10;;
23588;SDS011;11972;48.078;11.876;2022-08-02T18:07:30;4.63;;;0.90;;
23588;SDS011;11972;48.078;11.876;2022-08-02T18:11:31;2.10;;;1.30;;
23588;SDS011;11972;48.078;11.876;2022-08-02T18:15:31;3.53;;;1.30;;
23588;SDS011;11972;48.078;11.876;2022-08-02T18:19:32;4.78;;;2.10;;
23588;SDS011;11972;48.078;11.876;2022-08-02T18:23:32;6.18;;;2.20;;
23588;SDS011;11972;48.078;11.876;2022-08-02T18:27:32;6.93;;;2.20;;
23588;SDS011;11972;48.078;11.876;2022-08-02T18:31:35;6.07;;;2.53;;
23588;SDS011;11972;48.078;11.876;2022-08-02T18:35:37;4.82;;;1.10;;
23588;SDS011;11972;48.078;11.876;2022-08-02T18:39:41;2.70;;;1.33;;
23588;SDS011;11972;48.078;11.876;2022-08-02T18:43:41;0.98;;;0.85;;
23588;SDS011;11972;48.078;11.876;2022-08-02T18:47:42;1.73;;;0.90;;
23588;SDS011;11972;48.078;11.876;2022-08-02T18:51:42;1.48;;;1.30;;
23588;SDS011;11972;48.078;11.876;2022-08-02T18:55:46;5.32;;;1.02;;
23588;SDS011;11972;48.078;11.876;2022-08-02T18:59:46;2.20;;;0.77;;
23588;SDS011;11972;48.078;11.876;2022-08-02T19:03:47;1.45;;;1.00;;
23588;SDS011;11972;48.078;11.876;2022-08-02T19:07:48;3.43;;;1.40;;
23588;SDS011;11972;48.078;11.876;2022-08-02T19:11:48;2.03;;;1.10;;
23588;SDS011;11972;48.078;11.876;2022-08-02T19:15:49;2.78;;;1.13;;
23588;SDS011;11972;48.078;11.876;2022-08-02T19:19:49;3.90;;;1.35;;
23588;SDS011;11972;48.078;11.876;2022-08-02T19:23:49;2.13;;;1.00;;
23588;SDS011;11972;48.078;11.876;2022-08-02T19:27:50;2.93;;;1.30;;
23588;SDS011;11972;48.078;11.876;2022-08-02T19:31:51;3.05;;;1.40;;
23588;SDS011;11972;48.078;11.876;2022-08-02T19:35:53;1.52;;;1.20;;
23588;SDS011;11972;48.078;11.876;2022-08-02T19:39:53;2.30;;;1.00;;
23588;SDS011;11972;48.078;11.876;2022-08-02T19:43:54;3.22;;;0.93;;
23588;SDS011;11972;48.078;11.876;2022-08-02T19:47:54;1.85;;;1.00;;
23588;SDS011;11972;48.078;11.876;2022-08-02T19:51:56;2.35;;;1.42;;
23588;SDS011;11972;48.078;11.876;2022-08-02T19:55:56;3.72;;;0.98;;
23588;SDS011;11972;48.078;11.876;2022-08-02T19:59:57;1.17;;;0.90;;
23588;SDS011;11972;48.078;11.876;2022-08-02T20:03:57;1.40;;;1.30;;
23588;SDS011;11972;48.078;11.876;2022-08-02T20:07:58;1.38;;;1.20;;
23588;SDS011;11972;48.078;11.876;2022-08-02T20:11:58;3.00;;;1.60;;
23588;SDS011;11972;48.078;11.876;2022-08-02T20:15:58;1.60;;;1.30;;
23588;SDS011;11972;48.078;11.876;2022-08-02T20:19:59;4.03;;;1.30;;
23588;SDS011;11972;48.078;11.876;2022-08-02T20:23:59;2.07;;;1.40;;
23588;SDS011;11972;48.078;11.876;2022-08-02T20:28:00;1.75;;;1.30;;
23588;SDS011;11972;48.078;11.876;2022-08-02T20:32:00;4.40;;;1.20;;
23588;SDS011;11972;48.078;11.876;2022-08-02T20:36:00;2.90;;;1.03;;
23588;SDS011;11972;48.078;11.876;2022-08-02T20:40:02;3.05;;;1.00;;
23588;SDS011;11972;48.078;11.876;2022-08-02T20:44:04;1.50;;;1.33;;
23588;SDS011;11972;48.078;11.876;2022-08-02T20:48:04;1.47;;;1.07;;
23588;SDS011;11972;48.078;11.876;2022-08-02T20:52:05;2.33;;;1.10;;
23588;SDS011;11972;48.078;11.876;2022-08-02T20:56:05;1.27;;;0.90;;
23588;SDS011;11972;48.078;11.876;2022-08-02T21:00:06;2.07;;;0.93;;
23588;SDS011;11972;48.078;11.876;2022-08-02T21:04:06;2.58;;;1.15;;
23588;SDS011;11972;48.078;11.876;2022-08-02T21:08:08;2.13;;;1.50;;
23588;SDS011;11972;48.078;11.876;2022-08-02T21:12:09;1.50;;;1.15;;
23588;SDS011;11972;48.078;11.876;2022-08-02T21:16:09;2.78;;;1.30;;
23588;SDS011;11972;48.078;11.876;2022-08-02T21:20:10;1.92;;;1.35;;
23588;SDS011;11972;48.078;11.876;2022-08-02T21:24:11;1.35;;;1.23;;
23588;SDS011;11972;48.078;11.876;2022-08-02T21:28:11;3.83;;;1.52;;
23588;SDS011;11972;48.078;11.876;2022-08-02T21:32:11;2.27;;;1.50;;
23588;SDS011;11972;48.078;11.876;2022-08-02T21:36:12;1.25;;;1.10;;
23588;SDS011;11972;48.078;11.876;2022-08-02T21:40:13;1.30;;;1.10;;
23588;SDS011;11972;48.078;11.876;2022-08-02T21:44:14;1.88;;;1.60;;
23588;SDS011;11972;48.078;11.876;2022-08-02T21:48:15;3.47;;;1.30;;
23588;SDS011;11972;48.078;11.876;2022-08-02T21:52:16;2.00;;;1.25;;
23588;SDS011;11972;48.078;11.876;2022-08-02T21:56:16;3.50;;;1.00;;
23588;SDS011;11972;48.078;11.876;2022-08-02T22:00:17;2.35;;;1.50;;
23588;SDS011;11972;48.078;11.876;2022-08-02T22:04:17;2.80;;;1.38;;
23588;SDS011;11972;48.078;11.876;2022-08-02T22:08:18;2.70;;;1.40;;
23588;SDS011;11972;48.078;11.876;2022-08-02T22:12:18;2.60;;;1.50;;
23588;SDS011;11972;48.078;11.876;2022-08-02T22:16:19;1.40;;;1.30;;
23588;SDS011;11972;48.078;11.876;2022-08-02T22:20:19;1.60;;;1.27;;
23588;SDS011;11972;48.078;11.876;2022-08-02T22:24:20;1.23;;;1.10;;
23588;SDS011;11972;48.078;11.876;2022-08-02T22:28:20;2.40;;;1.33;;
23588;SDS011;11972;48.078;11.876;2022-08-02T22:32:20;1.75;;;1.30;;
23588;SDS011;11972;48.078;11.876;2022-08-02T22:36:41;1.73;;;1.40;;
23588;SDS011;11972;48.078;11.876;2022-08-02T22:40:42;2.17;;;1.58;;
23588;SDS011;11972;48.078;11.876;2022-08-02T22:44:43;4.65;;;2.00;;
23588;SDS011;11972;48.078;11.876;2022-08-02T22:48:43;2.30;;;1.40;;
23588;SDS011;11972;48.078;11.876;2022-08-02T22:52:44;1.98;;;1.38;;
23588;SDS011;11972;48.078;11.876;2022-08-02T22:56:44;2.53;;;1.52;;
23588;SDS011;11972;48.078;11.876;2022-08-02T23:00:45;2.27;;;1.60;;
23588;SDS011;11972;48.078;11.876;2022-08-02T23:04:45;1.50;;;1.40;;
23588;SDS011;11972;48.078;11.876;2022-08-02T23:08:45;1.60;;;1.35;;
23588;SDS011;11972;48.078;11.876;2022-08-02T23:12:46;1.52;;;1.30;;
23588;SDS011;11972;48.078;11.876;2022-08-02T23:16:46;1.60;;;1.50;;
23588;SDS011;11972;48.078;11.876;2022-08-02T23:21:05;1.42;;;1.27;;
23588;SDS011;11972;48.078;11.876;2022-08-02T23:25:05;2.17;;;1.27;;
23588;SDS011;11972;48.078;11.876;2022-08-02T23:29:06;3.03;;;2.60;;
23588;SDS011;11972;48.078;11.876;2022-08-02T23:33:07;3.10;;;1.35;;
23588;SDS011;11972;48.078;11.876;2022-08-02T23:37:07;1.13;;;1.03;;
23588;SDS011;11972;48.078;11.876;2022-08-02T23:41:08;2.38;;;1.60;;
23588;SDS011;11972;48.078;11.876;2022-08-02T23:45:08;1.55;;;1.30;;
23588;SDS011;11972;48.078;11.876;2022-08-02T23:49:09;1.33;;;1.00;;
23588;SDS011;11972;48.078;11.876;2022-08-02T23:53:09;2.30;;;1.10;;
23588;SDS011;11972;48.078;11.876;2022-08-02T23:57:10;1.30;;;1.20;;
